sensor_id;sensor_type;location;lat;lon;timestamp;P1;durP1;ratioP1;P2;durP2;ratioP2
76433;SDS011;65265;53.200;6.080;2024-01-30T00:04:15;24.13;;;14.55;;
76433;SDS011;65265;53.200;6.080;2024-01-30T00:09:08;23.13;;;13.73;;
76433;SDS011;65265;53.200;6.080;2024-01-30T00:14:03;23.92;;;13.90;;
76433;SDS011;65265;53.200;6.080;2024-01-30T00:18:55;22.63;;;13.90;;
76433;SDS011;65265;53.200;6.080;2024-01-30T00:23:47;22.92;;;12.88;;
76433;SDS011;65265;53.200;6.080;2024-01-30T00:28:40;21.83;;;14.43;;
76433;SDS011;65265;53.200;6.080;2024-01-30T00:33:37;24.33;;;14.45;;
76433;SDS011;65265;53.200;6.080;2024-01-30T00:38:29;21.95;;;13.77;;
76433;SDS011;65265;53.200;6.080;2024-01-30T00:43:22;26.55;;;15.95;;
76433;SDS011;65265;53.200;6.080;2024-01-30T00:48:15;22.10;;;13.40;;
76433;SDS011;65265;53.200;6.080;2024-01-30T00:53:09;24.25;;;14.82;;
76433;SDS011;65265;53.200;6.080;2024-01-30T00:58:01;21.25;;;12.95;;
76433;SDS011;65265;53.200;6.080;2024-01-30T01:02:54;24.63;;;13.65;;
76433;SDS011;65265;53.200;6.080;2024-01-30T01:07:47;27.15;;;14.35;;
76433;SDS011;65265;53.200;6.080;2024-01-30T01:12:41;22.17;;;13.98;;
76433;SDS011;65265;53.200;6.080;2024-01-30T01:17:33;21.88;;;13.43;;
76433;SDS011;65265;53.200;6.080;2024-01-30T01:22:25;23.58;;;13.63;;
76433;SDS011;65265;53.200;6.080;2024-01-30T01:27:18;27.13;;;14.75;;
76433;SDS011;65265;53.200;6.080;2024-01-30T01:32:13;22.58;;;14.43;;
76433;SDS011;65265;53.200;6.080;2024-01-30T01:37:05;21.98;;;13.02;;
76433;SDS011;65265;53.200;6.080;2024-01-30T01:41:58;24.63;;;14.85;;
76433;SDS011;65265;53.200;6.080;2024-01-30T01:46:50;23.67;;;15.40;;
76433;SDS011;65265;53.200;6.080;2024-01-30T01:51:46;22.90;;;13.18;;
76433;SDS011;65265;53.200;6.080;2024-01-30T01:56:41;25.13;;;14.30;;
76433;SDS011;65265;53.200;6.080;2024-01-30T02:01:34;25.67;;;14.20;;
76433;SDS011;65265;53.200;6.080;2024-01-30T02:06:28;22.80;;;13.93;;
76433;SDS011;65265;53.200;6.080;2024-01-30T02:11:24;18.95;;;13.35;;
76433;SDS011;65265;53.200;6.080;2024-01-30T02:16:17;19.48;;;12.20;;
76433;SDS011;65265;53.200;6.080;2024-01-30T02:21:11;22.15;;;12.18;;
76433;SDS011;65265;53.200;6.080;2024-01-30T02:26:05;21.88;;;12.85;;
76433;SDS011;65265;53.200;6.080;2024-01-30T02:30:58;25.83;;;12.55;;
76433;SDS011;65265;53.200;6.080;2024-01-30T02:35:50;21.27;;;11.88;;
76433;SDS011;65265;53.200;6.080;2024-01-30T02:40:45;20.70;;;11.80;;
76433;SDS011;65265;53.200;6.080;2024-01-30T02:45:38;20.63;;;11.32;;
76433;SDS011;65265;53.200;6.080;2024-01-30T02:50:31;21.40;;;11.60;;
76433;SDS011;65265;53.200;6.080;2024-01-30T02:55:23;23.42;;;14.75;;
76433;SDS011;65265;53.200;6.080;2024-01-30T03:00:18;21.30;;;11.80;;
76433;SDS011;65265;53.200;6.080;2024-01-30T03:05:12;20.58;;;12.10;;
76433;SDS011;65265;53.200;6.080;2024-01-30T03:10:06;20.52;;;11.80;;
76433;SDS011;65265;53.200;6.080;2024-01-30T03:14:58;19.70;;;12.13;;
76433;SDS011;65265;53.200;6.080;2024-01-30T03:19:54;20.33;;;12.52;;
76433;SDS011;65265;53.200;6.080;2024-01-30T03:24:47;20.08;;;11.82;;
76433;SDS011;65265;53.200;6.080;2024-01-30T03:29:39;20.02;;;11.85;;
76433;SDS011;65265;53.200;6.080;2024-01-30T03:34:31;18.63;;;11.70;;
76433;SDS011;65265;53.200;6.080;2024-01-30T03:39:25;18.60;;;12.38;;
76433;SDS011;65265;53.200;6.080;2024-01-30T03:44:18;18.88;;;11.02;;
76433;SDS011;65265;53.200;6.080;2024-01-30T03:49:10;20.90;;;11.35;;
76433;SDS011;65265;53.200;6.080;2024-01-30T03:54:02;20.50;;;12.40;;
76433;SDS011;65265;53.200;6.080;2024-01-30T03:58:58;23.25;;;11.85;;
76433;SDS011;65265;53.200;6.080;2024-01-30T04:03:53;21.85;;;11.65;;
76433;SDS011;65265;53.200;6.080;2024-01-30T04:08:45;24.75;;;11.40;;
76433;SDS011;65265;53.200;6.080;2024-01-30T04:13:39;18.58;;;10.20;;
76433;SDS011;65265;53.200;6.080;2024-01-30T04:18:35;17.98;;;11.65;;
76433;SDS011;65265;53.200;6.080;2024-01-30T04:23:29;18.40;;;11.15;;
76433;SDS011;65265;53.200;6.080;2024-01-30T04:28:21;17.42;;;10.45;;
76433;SDS011;65265;53.200;6.080;2024-01-30T04:33:14;18.08;;;10.18;;
76433;SDS011;65265;53.200;6.080;2024-01-30T04:47:57;18.13;;;9.23;;
76433;SDS011;65265;53.200;6.080;2024-01-30T04:52:51;16.73;;;9.93;;
76433;SDS011;65265;53.200;6.080;2024-01-30T04:57:47;18.80;;;9.80;;
76433;SDS011;65265;53.200;6.080;2024-01-30T05:02:40;16.27;;;10.13;;
76433;SDS011;65265;53.200;6.080;2024-01-30T05:07:33;13.88;;;9.25;;
76433;SDS011;65265;53.200;6.080;2024-01-30T05:12:25;15.18;;;9.68;;
76433;SDS011;65265;53.200;6.080;2024-01-30T05:22:14;14.50;;;8.73;;
76433;SDS011;65265;53.200;6.080;2024-01-30T05:27:10;15.65;;;8.98;;
76433;SDS011;65265;53.200;6.080;2024-01-30T05:32:04;13.65;;;8.52;;
76433;SDS011;65265;53.200;6.080;2024-01-30T05:36:58;14.57;;;7.72;;
76433;SDS011;65265;53.200;6.080;2024-01-30T05:41:51;15.20;;;8.88;;
76433;SDS011;65265;53.200;6.080;2024-01-30T05:46:44;15.65;;;8.77;;
76433;SDS011;65265;53.200;6.080;2024-01-30T05:51:37;13.30;;;8.65;;
76433;SDS011;65265;53.200;6.080;2024-01-30T05:56:32;13.98;;;8.80;;
76433;SDS011;65265;53.200;6.080;2024-01-30T06:01:24;16.05;;;9.07;;
76433;SDS011;65265;53.200;6.080;2024-01-30T06:06:16;13.52;;;9.73;;
76433;SDS011;65265;53.200;6.080;2024-01-30T06:11:09;17.92;;;9.15;;
76433;SDS011;65265;53.200;6.080;2024-01-30T06:16:04;15.00;;;8.65;;
76433;SDS011;65265;53.200;6.080;2024-01-30T06:20:56;15.43;;;9.70;;
76433;SDS011;65265;53.200;6.080;2024-01-30T06:25:49;17.50;;;9.73;;
76433;SDS011;65265;53.200;6.080;2024-01-30T06:30:42;16.23;;;9.30;;
76433;SDS011;65265;53.200;6.080;2024-01-30T06:35:38;16.08;;;9.90;;
76433;SDS011;65265;53.200;6.080;2024-01-30T06:40:31;15.38;;;8.85;;
76433;SDS011;65265;53.200;6.080;2024-01-30T06:45:23;15.60;;;9.00;;
76433;SDS011;65265;53.200;6.080;2024-01-30T06:50:15;17.83;;;7.95;;
76433;SDS011;65265;53.200;6.080;2024-01-30T06:55:10;15.00;;;8.98;;
76433;SDS011;65265;53.200;6.080;2024-01-30T07:00:06;12.65;;;8.90;;
76433;SDS011;65265;53.200;6.080;2024-01-30T07:04:59;14.57;;;8.25;;
76433;SDS011;65265;53.200;6.080;2024-01-30T07:09:51;15.13;;;8.27;;
76433;SDS011;65265;53.200;6.080;2024-01-30T07:14:49;15.38;;;8.45;;
76433;SDS011;65265;53.200;6.080;2024-01-30T07:19:42;17.15;;;8.73;;
76433;SDS011;65265;53.200;6.080;2024-01-30T07:24:34;18.55;;;9.90;;
76433;SDS011;65265;53.200;6.080;2024-01-30T07:29:26;14.63;;;8.10;;
76433;SDS011;65265;53.200;6.080;2024-01-30T07:34:22;11.77;;;8.05;;
76433;SDS011;65265;53.200;6.080;2024-01-30T07:39:14;17.50;;;9.30;;
76433;SDS011;65265;53.200;6.080;2024-01-30T07:44:07;14.18;;;7.80;;
76433;SDS011;65265;53.200;6.080;2024-01-30T07:48:59;13.00;;;8.07;;
76433;SDS011;65265;53.200;6.080;2024-01-30T07:53:53;17.92;;;8.82;;
76433;SDS011;65265;53.200;6.080;2024-01-30T07:58:48;16.48;;;8.27;;
76433;SDS011;65265;53.200;6.080;2024-01-30T08:03:41;14.65;;;8.30;;
76433;SDS011;65265;53.200;6.080;2024-01-30T08:08:33;19.35;;;8.63;;
76433;SDS011;65265;53.200;6.080;2024-01-30T08:13:27;14.93;;;7.80;;
76433;SDS011;65265;53.200;6.080;2024-01-30T08:18:20;13.02;;;7.15;;
76433;SDS011;65265;53.200;6.080;2024-01-30T08:23:12;12.55;;;7.22;;
76433;SDS011;65265;53.200;6.080;2024-01-30T08:28:04;16.15;;;8.10;;
76433;SDS011;65265;53.200;6.080;2024-01-30T08:32:59;15.02;;;8.77;;
76433;SDS011;65265;53.200;6.080;2024-01-30T08:37:52;14.05;;;7.70;;
76433;SDS011;65265;53.200;6.080;2024-01-30T08:42:44;12.57;;;7.75;;
76433;SDS011;65265;53.200;6.080;2024-01-30T08:47:36;13.63;;;8.20;;
76433;SDS011;65265;53.200;6.080;2024-01-30T08:52:32;15.40;;;7.70;;
76433;SDS011;65265;53.200;6.080;2024-01-30T08:57:25;14.20;;;8.60;;
76433;SDS011;65265;53.200;6.080;2024-01-30T09:02:18;14.95;;;8.10;;
76433;SDS011;65265;53.200;6.080;2024-01-30T09:07:11;13.95;;;7.53;;
76433;SDS011;65265;53.200;6.080;2024-01-30T09:12:07;17.83;;;8.30;;
76433;SDS011;65265;53.200;6.080;2024-01-30T09:17:00;13.32;;;7.78;;
76433;SDS011;65265;53.200;6.080;2024-01-30T09:21:53;12.75;;;7.18;;
76433;SDS011;65265;53.200;6.080;2024-01-30T09:26:46;14.55;;;7.30;;
76433;SDS011;65265;53.200;6.080;2024-01-30T09:31:40;17.02;;;9.82;;
76433;SDS011;65265;53.200;6.080;2024-01-30T09:36:34;15.93;;;8.55;;
76433;SDS011;65265;53.200;6.080;2024-01-30T09:41:26;15.38;;;7.82;;
76433;SDS011;65265;53.200;6.080;2024-01-30T09:46:19;15.98;;;8.38;;
76433;SDS011;65265;53.200;6.080;2024-01-30T09:51:18;17.17;;;8.93;;
76433;SDS011;65265;53.200;6.080;2024-01-30T09:56:12;16.65;;;8.18;;
76433;SDS011;65265;53.200;6.080;2024-01-30T10:01:06;14.88;;;8.15;;
76433;SDS011;65265;53.200;6.080;2024-01-30T10:06:01;16.67;;;7.50;;
76433;SDS011;65265;53.200;6.080;2024-01-30T10:15:49;15.90;;;8.65;;
76433;SDS011;65265;53.200;6.080;2024-01-30T10:20:42;14.35;;;7.40;;
76433;SDS011;65265;53.200;6.080;2024-01-30T10:25:35;16.55;;;8.30;;
76433;SDS011;65265;53.200;6.080;2024-01-30T10:30:30;14.70;;;8.60;;
76433;SDS011;65265;53.200;6.080;2024-01-30T10:35:23;14.05;;;8.25;;
76433;SDS011;65265;53.200;6.080;2024-01-30T10:40:15;12.60;;;7.07;;
76433;SDS011;65265;53.200;6.080;2024-01-30T10:45:08;12.68;;;6.35;;
76433;SDS011;65265;53.200;6.080;2024-01-30T10:50:05;12.70;;;5.47;;
76433;SDS011;65265;53.200;6.080;2024-01-30T10:55:00;12.63;;;5.90;;
76433;SDS011;65265;53.200;6.080;2024-01-30T10:59:57;8.35;;;4.78;;
76433;SDS011;65265;53.200;6.080;2024-01-30T11:04:54;13.57;;;2.25;;
76433;SDS011;65265;53.200;6.080;2024-01-30T11:09:52;8.05;;;2.45;;
76433;SDS011;65265;53.200;6.080;2024-01-30T11:14:45;5.45;;;1.30;;
76433;SDS011;65265;53.200;6.080;2024-01-30T11:19:37;9.98;;;1.33;;
76433;SDS011;65265;53.200;6.080;2024-01-30T11:24:30;4.80;;;0.93;;
76433;SDS011;65265;53.200;6.080;2024-01-30T11:29:30;5.93;;;1.42;;
76433;SDS011;65265;53.200;6.080;2024-01-30T11:34:23;6.50;;;1.00;;
76433;SDS011;65265;53.200;6.080;2024-01-30T11:39:15;5.80;;;2.13;;
76433;SDS011;65265;53.200;6.080;2024-01-30T11:44:12;6.60;;;2.08;;
76433;SDS011;65265;53.200;6.080;2024-01-30T11:49:04;7.53;;;1.90;;
76433;SDS011;65265;53.200;6.080;2024-01-30T11:53:56;5.97;;;1.13;;
76433;SDS011;65265;53.200;6.080;2024-01-30T11:58:48;3.50;;;1.05;;
76433;SDS011;65265;53.200;6.080;2024-01-30T12:03:42;5.65;;;0.75;;
76433;SDS011;65265;53.200;6.080;2024-01-30T12:08:35;2.53;;;0.95;;
76433;SDS011;65265;53.200;6.080;2024-01-30T12:13:26;6.63;;;0.60;;
76433;SDS011;65265;53.200;6.080;2024-01-30T12:18:19;2.70;;;0.93;;
76433;SDS011;65265;53.200;6.080;2024-01-30T12:23:11;1.95;;;0.82;;
76433;SDS011;65265;53.200;6.080;2024-01-30T12:28:05;2.70;;;0.68;;
76433;SDS011;65265;53.200;6.080;2024-01-30T12:37:48;3.38;;;1.10;;
76433;SDS011;65265;53.200;6.080;2024-01-30T12:42:41;1.55;;;0.80;;
76433;SDS011;65265;53.200;6.080;2024-01-30T12:47:35;2.97;;;0.45;;
76433;SDS011;65265;53.200;6.080;2024-01-30T12:52:28;3.25;;;0.47;;
76433;SDS011;65265;53.200;6.080;2024-01-30T12:57:20;2.90;;;0.47;;
76433;SDS011;65265;53.200;6.080;2024-01-30T13:02:12;2.08;;;1.15;;
76433;SDS011;65265;53.200;6.080;2024-01-30T13:07:05;4.10;;;1.35;;
76433;SDS011;65265;53.200;6.080;2024-01-30T13:11:57;2.60;;;1.27;;
76433;SDS011;65265;53.200;6.080;2024-01-30T13:16:50;4.93;;;2.75;;
76433;SDS011;65265;53.200;6.080;2024-01-30T13:26:37;4.07;;;1.08;;
76433;SDS011;65265;53.200;6.080;2024-01-30T13:31:30;3.28;;;1.08;;
76433;SDS011;65265;53.200;6.080;2024-01-30T13:36:22;2.35;;;0.90;;
76433;SDS011;65265;53.200;6.080;2024-01-30T13:41:13;4.97;;;1.85;;
76433;SDS011;65265;53.200;6.080;2024-01-30T13:46:08;2.88;;;1.10;;
76433;SDS011;65265;53.200;6.080;2024-01-30T13:51:00;3.30;;;1.17;;
76433;SDS011;65265;53.200;6.080;2024-01-30T13:55:51;2.70;;;0.98;;
76433;SDS011;65265;53.200;6.080;2024-01-30T14:00:43;6.90;;;1.42;;
76433;SDS011;65265;53.200;6.080;2024-01-30T14:05:36;3.70;;;1.58;;
76433;SDS011;65265;53.200;6.080;2024-01-30T14:10:28;2.15;;;1.15;;
76433;SDS011;65265;53.200;6.080;2024-01-30T14:15:20;2.40;;;1.65;;
76433;SDS011;65265;53.200;6.080;2024-01-30T14:20:13;3.80;;;1.15;;
76433;SDS011;65265;53.200;6.080;2024-01-30T14:30:00;2.80;;;1.77;;
76433;SDS011;65265;53.200;6.080;2024-01-30T14:34:53;5.85;;;2.50;;
76433;SDS011;65265;53.200;6.080;2024-01-30T14:39:46;3.78;;;1.83;;
76433;SDS011;65265;53.200;6.080;2024-01-30T14:44:40;6.65;;;2.33;;
76433;SDS011;65265;53.200;6.080;2024-01-30T14:49:32;10.90;;;3.92;;
76433;SDS011;65265;53.200;6.080;2024-01-30T14:54:25;9.02;;;3.22;;
76433;SDS011;65265;53.200;6.080;2024-01-30T14:59:17;6.32;;;3.50;;
76433;SDS011;65265;53.200;6.080;2024-01-30T15:04:09;6.05;;;2.92;;
76433;SDS011;65265;53.200;6.080;2024-01-30T15:09:01;7.68;;;3.15;;
76433;SDS011;65265;53.200;6.080;2024-01-30T15:13:53;6.95;;;3.22;;
76433;SDS011;65265;53.200;6.080;2024-01-30T15:18:44;7.88;;;3.33;;
76433;SDS011;65265;53.200;6.080;2024-01-30T15:23:38;6.75;;;2.45;;
76433;SDS011;65265;53.200;6.080;2024-01-30T15:28:34;4.20;;;2.15;;
76433;SDS011;65265;53.200;6.080;2024-01-30T15:33:27;3.55;;;2.20;;
76433;SDS011;65265;53.200;6.080;2024-01-30T15:38:19;5.40;;;1.52;;
76433;SDS011;65265;53.200;6.080;2024-01-30T15:43:13;8.23;;;2.67;;
76433;SDS011;65265;53.200;6.080;2024-01-30T15:48:05;8.20;;;2.80;;
76433;SDS011;65265;53.200;6.080;2024-01-30T15:52:57;8.38;;;3.58;;
76433;SDS011;65265;53.200;6.080;2024-01-30T15:57:49;7.25;;;3.25;;
76433;SDS011;65265;53.200;6.080;2024-01-30T16:02:43;9.57;;;3.22;;
76433;SDS011;65265;53.200;6.080;2024-01-30T16:07:34;8.15;;;2.08;;
76433;SDS011;65265;53.200;6.080;2024-01-30T16:12:26;8.10;;;2.28;;
76433;SDS011;65265;53.200;6.080;2024-01-30T16:17:18;8.15;;;2.33;;
76433;SDS011;65265;53.200;6.080;2024-01-30T16:22:11;10.00;;;2.25;;
76433;SDS011;65265;53.200;6.080;2024-01-30T16:27:02;6.22;;;1.73;;
76433;SDS011;65265;53.200;6.080;2024-01-30T16:31:54;10.63;;;2.22;;
76433;SDS011;65265;53.200;6.080;2024-01-30T16:36:46;10.05;;;2.20;;
76433;SDS011;65265;53.200;6.080;2024-01-30T16:41:41;7.05;;;1.42;;
76433;SDS011;65265;53.200;6.080;2024-01-30T16:46:33;9.13;;;3.47;;
76433;SDS011;65265;53.200;6.080;2024-01-30T16:51:26;8.23;;;2.17;;
76433;SDS011;65265;53.200;6.080;2024-01-30T16:56:18;15.48;;;2.83;;
76433;SDS011;65265;53.200;6.080;2024-01-30T17:01:11;12.35;;;3.30;;
76433;SDS011;65265;53.200;6.080;2024-01-30T17:06:02;16.48;;;2.10;;
76433;SDS011;65265;53.200;6.080;2024-01-30T17:10:58;11.48;;;2.10;;
76433;SDS011;65265;53.200;6.080;2024-01-30T17:15:49;13.38;;;2.05;;
76433;SDS011;65265;53.200;6.080;2024-01-30T17:20:42;6.55;;;1.85;;
76433;SDS011;65265;53.200;6.080;2024-01-30T17:25:34;9.15;;;1.25;;
76433;SDS011;65265;53.200;6.080;2024-01-30T17:30:26;11.13;;;1.52;;
76433;SDS011;65265;53.200;6.080;2024-01-30T17:35:18;7.00;;;0.73;;
76433;SDS011;65265;53.200;6.080;2024-01-30T17:40:11;11.38;;;2.00;;
76433;SDS011;65265;53.200;6.080;2024-01-30T17:45:03;5.32;;;0.75;;
76433;SDS011;65265;53.200;6.080;2024-01-30T17:49:56;18.92;;;1.48;;
76433;SDS011;65265;53.200;6.080;2024-01-30T17:54:48;10.18;;;1.33;;
76433;SDS011;65265;53.200;6.080;2024-01-30T17:59:41;5.45;;;0.85;;
76433;SDS011;65265;53.200;6.080;2024-01-30T18:04:33;9.07;;;0.90;;
76433;SDS011;65265;53.200;6.080;2024-01-30T18:09:29;9.20;;;1.17;;
76433;SDS011;65265;53.200;6.080;2024-01-30T18:14:20;11.43;;;1.65;;
76433;SDS011;65265;53.200;6.080;2024-01-30T18:19:13;21.77;;;2.53;;
76433;SDS011;65265;53.200;6.080;2024-01-30T18:24:05;13.73;;;1.77;;
76433;SDS011;65265;53.200;6.080;2024-01-30T18:28:57;13.93;;;0.95;;
76433;SDS011;65265;53.200;6.080;2024-01-30T18:33:49;17.15;;;2.38;;
76433;SDS011;65265;53.200;6.080;2024-01-30T18:38:44;15.13;;;1.38;;
76433;SDS011;65265;53.200;6.080;2024-01-30T18:43:35;9.98;;;2.58;;
76433;SDS011;65265;53.200;6.080;2024-01-30T18:48:27;9.60;;;1.95;;
76433;SDS011;65265;53.200;6.080;2024-01-30T18:53:18;11.05;;;1.33;;
76433;SDS011;65265;53.200;6.080;2024-01-30T18:58:11;15.15;;;1.10;;
76433;SDS011;65265;53.200;6.080;2024-01-30T19:03:04;15.73;;;1.42;;
76433;SDS011;65265;53.200;6.080;2024-01-30T19:07:56;7.78;;;0.68;;
76433;SDS011;65265;53.200;6.080;2024-01-30T19:12:47;8.55;;;1.00;;
76433;SDS011;65265;53.200;6.080;2024-01-30T19:17:41;12.13;;;2.08;;
76433;SDS011;65265;53.200;6.080;2024-01-30T19:22:32;15.57;;;1.90;;
76433;SDS011;65265;53.200;6.080;2024-01-30T19:27:24;5.45;;;0.65;;
76433;SDS011;65265;53.200;6.080;2024-01-30T19:32:16;4.07;;;0.88;;
76433;SDS011;65265;53.200;6.080;2024-01-30T19:37:09;8.02;;;1.85;;
76433;SDS011;65265;53.200;6.080;2024-01-30T19:42:01;7.28;;;1.08;;
76433;SDS011;65265;53.200;6.080;2024-01-30T19:46:52;6.72;;;1.20;;
76433;SDS011;65265;53.200;6.080;2024-01-30T19:51:44;8.63;;;0.43;;
76433;SDS011;65265;53.200;6.080;2024-01-30T19:56:37;2.78;;;0.65;;
76433;SDS011;65265;53.200;6.080;2024-01-30T20:01:28;3.85;;;0.52;;
76433;SDS011;65265;53.200;6.080;2024-01-30T20:06:20;5.97;;;0.75;;
76433;SDS011;65265;53.200;6.080;2024-01-30T20:11:11;1.83;;;0.47;;
76433;SDS011;65265;53.200;6.080;2024-01-30T20:16:05;3.00;;;0.40;;
76433;SDS011;65265;53.200;6.080;2024-01-30T20:20:57;6.68;;;0.45;;
76433;SDS011;65265;53.200;6.080;2024-01-30T20:25:48;6.60;;;0.60;;
76433;SDS011;65265;53.200;6.080;2024-01-30T20:30:40;3.15;;;0.40;;
76433;SDS011;65265;53.200;6.080;2024-01-30T20:35:33;1.98;;;0.38;;
76433;SDS011;65265;53.200;6.080;2024-01-30T20:40:24;4.82;;;0.85;;
76433;SDS011;65265;53.200;6.080;2024-01-30T20:45:16;6.22;;;0.28;;
76433;SDS011;65265;53.200;6.080;2024-01-30T20:50:08;5.00;;;0.47;;
76433;SDS011;65265;53.200;6.080;2024-01-30T20:55:01;4.22;;;1.02;;
76433;SDS011;65265;53.200;6.080;2024-01-30T20:59:53;2.72;;;0.70;;
76433;SDS011;65265;53.200;6.080;2024-01-30T21:04:45;4.95;;;1.05;;
76433;SDS011;65265;53.200;6.080;2024-01-30T21:09:36;2.25;;;0.73;;
76433;SDS011;65265;53.200;6.080;2024-01-30T21:14:29;6.72;;;1.27;;
76433;SDS011;65265;53.200;6.080;2024-01-30T21:19:21;2.13;;;0.40;;
76433;SDS011;65265;53.200;6.080;2024-01-30T21:24:12;1.63;;;0.38;;
76433;SDS011;65265;53.200;6.080;2024-01-30T21:29:04;2.75;;;0.20;;
76433;SDS011;65265;53.200;6.080;2024-01-30T21:33:57;4.50;;;0.63;;
76433;SDS011;65265;53.200;6.080;2024-01-30T21:38:48;5.15;;;0.98;;
76433;SDS011;65265;53.200;6.080;2024-01-30T21:43:40;2.60;;;0.43;;
76433;SDS011;65265;53.200;6.080;2024-01-30T21:48:33;3.67;;;0.20;;
76433;SDS011;65265;53.200;6.080;2024-01-30T21:53:26;2.47;;;0.55;;
76433;SDS011;65265;53.200;6.080;2024-01-30T21:58:17;3.13;;;0.93;;
76433;SDS011;65265;53.200;6.080;2024-01-30T22:03:09;3.10;;;0.95;;
76433;SDS011;65265;53.200;6.080;2024-01-30T22:08:01;2.17;;;0.30;;
76433;SDS011;65265;53.200;6.080;2024-01-30T22:12:54;3.15;;;0.47;;
76433;SDS011;65265;53.200;6.080;2024-01-30T22:17:45;3.33;;;0.45;;
76433;SDS011;65265;53.200;6.080;2024-01-30T22:22:37;5.60;;;0.57;;
76433;SDS011;65265;53.200;6.080;2024-01-30T22:27:28;4.15;;;1.05;;
76433;SDS011;65265;53.200;6.080;2024-01-30T22:32:21;2.45;;;0.52;;
76433;SDS011;65265;53.200;6.080;2024-01-30T22:37:12;2.55;;;0.75;;
76433;SDS011;65265;53.200;6.080;2024-01-30T22:42:04;1.20;;;0.20;;
76433;SDS011;65265;53.200;6.080;2024-01-30T22:46:55;1.48;;;0.50;;
76433;SDS011;65265;53.200;6.080;2024-01-30T22:51:48;3.50;;;0.80;;
76433;SDS011;65265;53.200;6.080;2024-01-30T22:56:40;5.45;;;0.60;;
76433;SDS011;65265;53.200;6.080;2024-01-30T23:01:31;1.77;;;0.30;;
76433;SDS011;65265;53.200;6.080;2024-01-30T23:06:23;2.92;;;0.40;;
76433;SDS011;65265;53.200;6.080;2024-01-30T23:11:16;7.75;;;1.05;;
76433;SDS011;65265;53.200;6.080;2024-01-30T23:16:07;2.90;;;0.20;;
76433;SDS011;65265;53.200;6.080;2024-01-30T23:20:59;2.03;;;0.28;;
76433;SDS011;65265;53.200;6.080;2024-01-30T23:25:50;5.22;;;0.80;;
76433;SDS011;65265;53.200;6.080;2024-01-30T23:30:43;4.22;;;0.28;;
76433;SDS011;65265;53.200;6.080;2024-01-30T23:35:35;2.65;;;0.80;;
76433;SDS011;65265;53.200;6.080;2024-01-30T23:40:27;5.38;;;0.57;;
76433;SDS011;65265;53.200;6.080;2024-01-30T23:45:18;3.97;;;0.32;;
76433;SDS011;65265;53.200;6.080;2024-01-30T23:50:11;0.85;;;0.55;;
76433;SDS011;65265;53.200;6.080;2024-01-30T23:55:03;4.05;;;0.90;;
76433;SDS011;65265;53.200;6.080;2024-01-30T23:59:55;2.45;;;0.47;;
